sensor_id;sensor_type;location;lat;lon;timestamp;P1;durP1;ratioP1;P2;durP2;ratioP2
13108;SDS011;6620;53.734;11.510;2023-01-05T00:01:37;12.23;;;2.00;;
13108;SDS011;6620;53.734;11.510;2023-01-05T00:04:03;8.40;;;1.98;;
13108;SDS011;6620;53.734;11.510;2023-01-05T00:06:28;10.90;;;1.50;;
13108;SDS011;6620;53.734;11.510;2023-01-05T00:08:53;13.52;;;1.90;;
13108;SDS011;6620;53.734;11.510;2023-01-05T00:11:20;17.58;;;1.67;;
13108;SDS011;6620;53.734;11.510;2023-01-05T00:14:04;18.90;;;2.00;;
13108;SDS011;6620;53.734;11.510;2023-01-05T00:16:48;11.07;;;1.52;;
13108;SDS011;6620;53.734;11.510;2023-01-05T00:19:32;11.25;;;1.60;;
13108;SDS011;6620;53.734;11.510;2023-01-05T00:22:17;11.18;;;1.35;;
13108;SDS011;6620;53.734;11.510;2023-01-05T00:24:54;14.18;;;1.73;;
13108;SDS011;6620;53.734;11.510;2023-01-05T00:27:20;17.00;;;3.60;;
13108;SDS011;6620;53.734;11.510;2023-01-05T00:29:45;7.90;;;1.70;;
13108;SDS011;6620;53.734;11.510;2023-01-05T00:32:10;19.50;;;1.80;;
13108;SDS011;6620;53.734;11.510;2023-01-05T00:34:35;13.80;;;1.93;;
13108;SDS011;6620;53.734;11.510;2023-01-05T00:37:00;16.73;;;2.13;;
13108;SDS011;6620;53.734;11.510;2023-01-05T00:39:25;16.73;;;2.07;;
13108;SDS011;6620;53.734;11.510;2023-01-05T00:41:51;8.57;;;1.33;;
13108;SDS011;6620;53.734;11.510;2023-01-05T00:44:16;12.10;;;1.37;;
13108;SDS011;6620;53.734;11.510;2023-01-05T00:46:41;19.03;;;2.43;;
13108;SDS011;6620;53.734;11.510;2023-01-05T00:49:06;18.33;;;2.53;;
13108;SDS011;6620;53.734;11.510;2023-01-05T00:51:31;21.08;;;2.30;;
13108;SDS011;6620;53.734;11.510;2023-01-05T00:53:56;15.33;;;1.43;;
13108;SDS011;6620;53.734;11.510;2023-01-05T00:56:22;14.33;;;1.70;;
13108;SDS011;6620;53.734;11.510;2023-01-05T00:58:47;4.70;;;0.80;;
13108;SDS011;6620;53.734;11.510;2023-01-05T01:01:12;9.82;;;1.08;;
13108;SDS011;6620;53.734;11.510;2023-01-05T01:03:38;13.50;;;1.05;;
13108;SDS011;6620;53.734;11.510;2023-01-05T01:06:03;13.05;;;1.05;;
13108;SDS011;6620;53.734;11.510;2023-01-05T01:08:29;11.13;;;1.27;;
13108;SDS011;6620;53.734;11.510;2023-01-05T01:10:54;9.75;;;1.27;;
13108;SDS011;6620;53.734;11.510;2023-01-05T01:13:19;8.02;;;0.50;;
13108;SDS011;6620;53.734;11.510;2023-01-05T01:15:46;9.95;;;1.15;;
13108;SDS011;6620;53.734;11.510;2023-01-05T01:18:12;10.67;;;1.50;;
13108;SDS011;6620;53.734;11.510;2023-01-05T01:20:37;8.53;;;1.30;;
13108;SDS011;6620;53.734;11.510;2023-01-05T01:23:02;8.80;;;1.20;;
13108;SDS011;6620;53.734;11.510;2023-01-05T01:25:28;7.22;;;0.90;;
13108;SDS011;6620;53.734;11.510;2023-01-05T01:27:53;7.35;;;1.00;;
13108;SDS011;6620;53.734;11.510;2023-01-05T01:30:19;6.97;;;0.40;;
13108;SDS011;6620;53.734;11.510;2023-01-05T01:32:44;19.03;;;1.30;;
13108;SDS011;6620;53.734;11.510;2023-01-05T01:35:09;13.93;;;1.88;;
13108;SDS011;6620;53.734;11.510;2023-01-05T01:37:34;15.33;;;1.60;;
13108;SDS011;6620;53.734;11.510;2023-01-05T01:39:59;4.80;;;0.82;;
13108;SDS011;6620;53.734;11.510;2023-01-05T01:42:25;20.73;;;2.07;;
13108;SDS011;6620;53.734;11.510;2023-01-05T01:44:57;10.20;;;1.30;;
13108;SDS011;6620;53.734;11.510;2023-01-05T01:49:48;14.53;;;3.20;;
13108;SDS011;6620;53.734;11.510;2023-01-05T01:52:14;10.77;;;2.45;;
13108;SDS011;6620;53.734;11.510;2023-01-05T01:54:39;22.20;;;1.80;;
13108;SDS011;6620;53.734;11.510;2023-01-05T01:57:05;6.53;;;2.03;;
13108;SDS011;6620;53.734;11.510;2023-01-05T01:59:34;7.78;;;1.67;;
13108;SDS011;6620;53.734;11.510;2023-01-05T02:01:59;14.83;;;1.57;;
13108;SDS011;6620;53.734;11.510;2023-01-05T02:04:25;14.05;;;1.55;;
13108;SDS011;6620;53.734;11.510;2023-01-05T02:06:51;19.15;;;2.97;;
13108;SDS011;6620;53.734;11.510;2023-01-05T02:09:16;9.20;;;1.55;;
13108;SDS011;6620;53.734;11.510;2023-01-05T02:11:57;9.52;;;1.20;;
13108;SDS011;6620;53.734;11.510;2023-01-05T02:14:44;18.33;;;2.22;;
13108;SDS011;6620;53.734;11.510;2023-01-05T02:17:16;11.02;;;1.55;;
13108;SDS011;6620;53.734;11.510;2023-01-05T02:35:22;8.75;;;0.90;;
13108;SDS011;6620;53.734;11.510;2023-01-05T02:37:55;17.08;;;1.60;;
13108;SDS011;6620;53.734;11.510;2023-01-05T02:40:26;10.32;;;1.60;;
13108;SDS011;6620;53.734;11.510;2023-01-05T02:42:53;12.20;;;1.40;;
13108;SDS011;6620;53.734;11.510;2023-01-05T02:45:20;16.13;;;2.63;;
13108;SDS011;6620;53.734;11.510;2023-01-05T02:47:46;13.05;;;1.58;;
13108;SDS011;6620;53.734;11.510;2023-01-05T02:50:28;6.15;;;1.85;;
13108;SDS011;6620;53.734;11.510;2023-01-05T02:53:16;7.72;;;1.98;;
13108;SDS011;6620;53.734;11.510;2023-01-05T02:55:45;17.98;;;2.20;;
13108;SDS011;6620;53.734;11.510;2023-01-05T02:58:13;19.42;;;2.10;;
13108;SDS011;6620;53.734;11.510;2023-01-05T03:00:40;21.35;;;2.45;;
13108;SDS011;6620;53.734;11.510;2023-01-05T03:03:15;17.75;;;1.80;;
13108;SDS011;6620;53.734;11.510;2023-01-05T03:05:44;14.02;;;1.15;;
13108;SDS011;6620;53.734;11.510;2023-01-05T03:08:13;18.60;;;2.03;;
13108;SDS011;6620;53.734;11.510;2023-01-05T03:13:42;10.32;;;1.13;;
13108;SDS011;6620;53.734;11.510;2023-01-05T03:16:10;13.95;;;2.03;;
13108;SDS011;6620;53.734;11.510;2023-01-05T03:18:36;8.85;;;0.90;;
13108;SDS011;6620;53.734;11.510;2023-01-05T03:21:23;12.70;;;1.10;;
13108;SDS011;6620;53.734;11.510;2023-01-05T03:23:49;13.93;;;1.83;;
13108;SDS011;6620;53.734;11.510;2023-01-05T03:26:34;10.48;;;2.20;;
13108;SDS011;6620;53.734;11.510;2023-01-05T03:29:17;17.48;;;2.78;;
13108;SDS011;6620;53.734;11.510;2023-01-05T03:32:04;9.25;;;1.70;;
13108;SDS011;6620;53.734;11.510;2023-01-05T03:37:44;15.40;;;1.92;;
13108;SDS011;6620;53.734;11.510;2023-01-05T03:40:13;17.65;;;2.60;;
13108;SDS011;6620;53.734;11.510;2023-01-05T03:42:40;15.00;;;1.80;;
13108;SDS011;6620;53.734;11.510;2023-01-05T03:45:06;10.07;;;1.17;;
13108;SDS011;6620;53.734;11.510;2023-01-05T03:47:32;11.77;;;1.38;;
13108;SDS011;6620;53.734;11.510;2023-01-05T03:49:57;15.17;;;1.90;;
13108;SDS011;6620;53.734;11.510;2023-01-05T03:52:22;16.40;;;2.43;;
13108;SDS011;6620;53.734;11.510;2023-01-05T03:54:47;10.47;;;1.87;;
13108;SDS011;6620;53.734;11.510;2023-01-05T03:57:13;14.23;;;3.13;;
13108;SDS011;6620;53.734;11.510;2023-01-05T03:59:38;15.10;;;2.07;;
13108;SDS011;6620;53.734;11.510;2023-01-05T04:02:03;20.10;;;3.30;;
13108;SDS011;6620;53.734;11.510;2023-01-05T04:04:28;8.23;;;0.93;;
13108;SDS011;6620;53.734;11.510;2023-01-05T04:06:53;8.40;;;1.00;;
13108;SDS011;6620;53.734;11.510;2023-01-05T04:09:19;8.80;;;1.43;;
13108;SDS011;6620;53.734;11.510;2023-01-05T04:11:44;8.07;;;1.65;;
13108;SDS011;6620;53.734;11.510;2023-01-05T04:14:09;6.18;;;0.98;;
13108;SDS011;6620;53.734;11.510;2023-01-05T04:16:34;7.87;;;1.13;;
13108;SDS011;6620;53.734;11.510;2023-01-05T05:08:29;7.55;;;0.88;;
13108;SDS011;6620;53.734;11.510;2023-01-05T05:10:54;9.85;;;2.03;;
13108;SDS011;6620;53.734;11.510;2023-01-05T05:13:19;9.40;;;1.00;;
13108;SDS011;6620;53.734;11.510;2023-01-05T05:15:44;8.37;;;0.97;;
13108;SDS011;6620;53.734;11.510;2023-01-05T05:18:10;10.00;;;1.20;;
13108;SDS011;6620;53.734;11.510;2023-01-05T05:20:35;8.50;;;1.30;;
13108;SDS011;6620;53.734;11.510;2023-01-05T05:23:01;6.95;;;0.55;;
13108;SDS011;6620;53.734;11.510;2023-01-05T05:25:26;9.63;;;1.38;;
13108;SDS011;6620;53.734;11.510;2023-01-05T05:27:51;5.83;;;1.63;;
13108;SDS011;6620;53.734;11.510;2023-01-05T05:30:16;10.83;;;1.27;;
13108;SDS011;6620;53.734;11.510;2023-01-05T05:32:41;12.27;;;1.13;;
13108;SDS011;6620;53.734;11.510;2023-01-05T05:35:07;5.37;;;0.63;;
13108;SDS011;6620;53.734;11.510;2023-01-05T05:37:32;2.65;;;0.88;;
13108;SDS011;6620;53.734;11.510;2023-01-05T05:39:57;9.03;;;1.13;;
13108;SDS011;6620;53.734;11.510;2023-01-05T05:42:22;7.40;;;0.70;;
13108;SDS011;6620;53.734;11.510;2023-01-05T05:44:48;16.27;;;2.20;;
13108;SDS011;6620;53.734;11.510;2023-01-05T05:47:13;14.17;;;1.30;;
13108;SDS011;6620;53.734;11.510;2023-01-05T05:49:38;6.73;;;0.93;;
13108;SDS011;6620;53.734;11.510;2023-01-05T05:52:03;11.13;;;1.13;;
13108;SDS011;6620;53.734;11.510;2023-01-05T05:54:28;8.37;;;0.73;;
13108;SDS011;6620;53.734;11.510;2023-01-05T05:56:54;9.07;;;0.67;;
13108;SDS011;6620;53.734;11.510;2023-01-05T05:59:19;12.45;;;1.23;;
13108;SDS011;6620;53.734;11.510;2023-01-05T06:01:44;6.82;;;0.70;;
13108;SDS011;6620;53.734;11.510;2023-01-05T06:04:10;6.97;;;0.90;;
13108;SDS011;6620;53.734;11.510;2023-01-05T06:06:35;9.23;;;0.90;;
13108;SDS011;6620;53.734;11.510;2023-01-05T06:09:00;12.05;;;1.45;;
13108;SDS011;6620;53.734;11.510;2023-01-05T06:11:26;12.33;;;0.70;;
13108;SDS011;6620;53.734;11.510;2023-01-05T06:13:51;4.60;;;1.15;;
13108;SDS011;6620;53.734;11.510;2023-01-05T06:16:16;8.40;;;0.80;;
13108;SDS011;6620;53.734;11.510;2023-01-05T06:18:41;12.63;;;1.17;;
13108;SDS011;6620;53.734;11.510;2023-01-05T06:21:06;4.93;;;0.57;;
13108;SDS011;6620;53.734;11.510;2023-01-05T06:23:32;13.55;;;0.82;;
13108;SDS011;6620;53.734;11.510;2023-01-05T06:25:58;7.77;;;0.97;;
13108;SDS011;6620;53.734;11.510;2023-01-05T06:28:23;7.53;;;1.00;;
13108;SDS011;6620;53.734;11.510;2023-01-05T06:30:48;10.47;;;1.27;;
13108;SDS011;6620;53.734;11.510;2023-01-05T06:33:13;8.30;;;0.70;;
13108;SDS011;6620;53.734;11.510;2023-01-05T06:35:38;12.40;;;1.60;;
13108;SDS011;6620;53.734;11.510;2023-01-05T06:38:04;5.73;;;0.90;;
13108;SDS011;6620;53.734;11.510;2023-01-05T06:40:29;7.90;;;0.80;;
13108;SDS011;6620;53.734;11.510;2023-01-05T06:42:54;17.20;;;1.77;;
13108;SDS011;6620;53.734;11.510;2023-01-05T06:45:19;12.77;;;1.33;;
13108;SDS011;6620;53.734;11.510;2023-01-05T06:47:45;8.77;;;0.85;;
13108;SDS011;6620;53.734;11.510;2023-01-05T06:50:10;9.23;;;1.27;;
13108;SDS011;6620;53.734;11.510;2023-01-05T06:52:35;9.73;;;1.00;;
13108;SDS011;6620;53.734;11.510;2023-01-05T06:55:04;10.57;;;0.82;;
13108;SDS011;6620;53.734;11.510;2023-01-05T06:57:29;3.80;;;0.40;;
13108;SDS011;6620;53.734;11.510;2023-01-05T06:59:55;3.47;;;0.73;;
13108;SDS011;6620;53.734;11.510;2023-01-05T07:02:20;10.83;;;0.90;;
13108;SDS011;6620;53.734;11.510;2023-01-05T07:04:45;3.70;;;0.67;;
13108;SDS011;6620;53.734;11.510;2023-01-05T07:07:11;7.03;;;0.80;;
13108;SDS011;6620;53.734;11.510;2023-01-05T07:09:36;11.73;;;1.13;;
13108;SDS011;6620;53.734;11.510;2023-01-05T07:12:01;7.43;;;0.90;;
13108;SDS011;6620;53.734;11.510;2023-01-05T07:14:26;6.30;;;1.13;;
13108;SDS011;6620;53.734;11.510;2023-01-05T07:16:51;8.40;;;0.87;;
13108;SDS011;6620;53.734;11.510;2023-01-05T07:19:16;8.57;;;1.03;;
13108;SDS011;6620;53.734;11.510;2023-01-05T07:21:42;7.40;;;1.60;;
13108;SDS011;6620;53.734;11.510;2023-01-05T07:24:07;9.10;;;0.90;;
13108;SDS011;6620;53.734;11.510;2023-01-05T07:26:32;7.50;;;1.00;;
13108;SDS011;6620;53.734;11.510;2023-01-05T07:28:57;10.63;;;1.10;;
13108;SDS011;6620;53.734;11.510;2023-01-05T07:31:23;5.03;;;0.70;;
13108;SDS011;6620;53.734;11.510;2023-01-05T07:33:48;7.80;;;0.85;;
13108;SDS011;6620;53.734;11.510;2023-01-05T07:36:13;5.50;;;0.95;;
13108;SDS011;6620;53.734;11.510;2023-01-05T07:38:38;5.13;;;0.70;;
13108;SDS011;6620;53.734;11.510;2023-01-05T07:41:04;9.77;;;0.53;;
13108;SDS011;6620;53.734;11.510;2023-01-05T07:43:29;11.10;;;1.17;;
13108;SDS011;6620;53.734;11.510;2023-01-05T07:45:58;8.98;;;1.20;;
13108;SDS011;6620;53.734;11.510;2023-01-05T07:48:23;13.00;;;1.40;;
13108;SDS011;6620;53.734;11.510;2023-01-05T07:50:48;7.07;;;0.80;;
13108;SDS011;6620;53.734;11.510;2023-01-05T07:53:13;7.13;;;0.67;;
13108;SDS011;6620;53.734;11.510;2023-01-05T07:55:39;9.63;;;0.60;;
13108;SDS011;6620;53.734;11.510;2023-01-05T07:58:04;6.70;;;1.08;;
13108;SDS011;6620;53.734;11.510;2023-01-05T08:00:29;11.77;;;1.23;;
13108;SDS011;6620;53.734;11.510;2023-01-05T08:02:55;7.10;;;1.13;;
13108;SDS011;6620;53.734;11.510;2023-01-05T08:05:20;11.88;;;0.88;;
13108;SDS011;6620;53.734;11.510;2023-01-05T08:07:45;8.23;;;1.30;;
13108;SDS011;6620;53.734;11.510;2023-01-05T08:10:10;6.37;;;0.63;;
13108;SDS011;6620;53.734;11.510;2023-01-05T08:12:54;7.40;;;0.88;;
13108;SDS011;6620;53.734;11.510;2023-01-05T08:15:38;6.68;;;1.08;;
13108;SDS011;6620;53.734;11.510;2023-01-05T08:18:04;6.20;;;0.93;;
13108;SDS011;6620;53.734;11.510;2023-01-05T08:20:29;10.20;;;2.10;;
13108;SDS011;6620;53.734;11.510;2023-01-05T08:22:54;7.50;;;1.48;;
13108;SDS011;6620;53.734;11.510;2023-01-05T08:25:19;6.60;;;0.53;;
13108;SDS011;6620;53.734;11.510;2023-01-05T08:27:45;7.18;;;1.05;;
13108;SDS011;6620;53.734;11.510;2023-01-05T08:30:10;7.00;;;1.05;;
13108;SDS011;6620;53.734;11.510;2023-01-05T08:32:36;8.48;;;1.33;;
13108;SDS011;6620;53.734;11.510;2023-01-05T08:35:01;8.18;;;2.25;;
13108;SDS011;6620;53.734;11.510;2023-01-05T08:37:27;8.80;;;1.45;;
13108;SDS011;6620;53.734;11.510;2023-01-05T08:39:52;11.77;;;1.10;;
13108;SDS011;6620;53.734;11.510;2023-01-05T08:42:17;11.13;;;2.30;;
13108;SDS011;6620;53.734;11.510;2023-01-05T08:44:42;4.80;;;1.50;;
13108;SDS011;6620;53.734;11.510;2023-01-05T08:47:07;8.90;;;1.03;;
13108;SDS011;6620;53.734;11.510;2023-01-05T08:49:32;7.87;;;0.90;;
13108;SDS011;6620;53.734;11.510;2023-01-05T08:51:58;11.68;;;1.35;;
13108;SDS011;6620;53.734;11.510;2023-01-05T08:54:23;16.03;;;1.93;;
13108;SDS011;6620;53.734;11.510;2023-01-05T08:56:48;8.18;;;1.73;;
13108;SDS011;6620;53.734;11.510;2023-01-05T08:59:14;8.27;;;1.20;;
13108;SDS011;6620;53.734;11.510;2023-01-05T09:01:39;7.23;;;1.50;;
13108;SDS011;6620;53.734;11.510;2023-01-05T09:04:05;4.78;;;0.43;;
13108;SDS011;6620;53.734;11.510;2023-01-05T09:06:30;5.32;;;1.25;;
13108;SDS011;6620;53.734;11.510;2023-01-05T09:08:55;7.03;;;1.85;;
13108;SDS011;6620;53.734;11.510;2023-01-05T09:11:21;3.87;;;0.77;;
13108;SDS011;6620;53.734;11.510;2023-01-05T09:13:48;8.70;;;0.90;;
13108;SDS011;6620;53.734;11.510;2023-01-05T09:16:14;8.27;;;0.65;;
13108;SDS011;6620;53.734;11.510;2023-01-05T09:18:40;8.73;;;0.95;;
13108;SDS011;6620;53.734;11.510;2023-01-05T09:21:06;9.48;;;1.05;;
13108;SDS011;6620;53.734;11.510;2023-01-05T09:23:32;8.48;;;1.02;;
13108;SDS011;6620;53.734;11.510;2023-01-05T09:25:57;7.40;;;0.75;;
13108;SDS011;6620;53.734;11.510;2023-01-05T09:28:23;3.70;;;0.63;;
13108;SDS011;6620;53.734;11.510;2023-01-05T09:30:48;6.65;;;0.50;;
13108;SDS011;6620;53.734;11.510;2023-01-05T09:33:13;3.67;;;0.35;;
13108;SDS011;6620;53.734;11.510;2023-01-05T09:35:39;5.15;;;0.47;;
13108;SDS011;6620;53.734;11.510;2023-01-05T09:38:04;0.67;;;0.50;;
13108;SDS011;6620;53.734;11.510;2023-01-05T09:40:30;5.72;;;0.60;;
13108;SDS011;6620;53.734;11.510;2023-01-05T09:42:58;2.55;;;0.20;;
13108;SDS011;6620;53.734;11.510;2023-01-05T09:45:25;4.18;;;0.77;;
13108;SDS011;6620;53.734;11.510;2023-01-05T09:47:50;1.95;;;0.20;;
13108;SDS011;6620;53.734;11.510;2023-01-05T09:50:18;2.63;;;0.82;;
13108;SDS011;6620;53.734;11.510;2023-01-05T09:52:44;0.75;;;0.20;;
13108;SDS011;6620;53.734;11.510;2023-01-05T09:55:19;0.40;;;0.22;;
13108;SDS011;6620;53.734;11.510;2023-01-05T09:57:49;1.33;;;0.30;;
13108;SDS011;6620;53.734;11.510;2023-01-05T10:00:16;1.85;;;0.10;;
13108;SDS011;6620;53.734;11.510;2023-01-05T10:02:43;0.68;;;0.10;;
13108;SDS011;6620;53.734;11.510;2023-01-05T10:05:10;1.98;;;0.68;;
13108;SDS011;6620;53.734;11.510;2023-01-05T10:07:39;3.03;;;0.47;;
13108;SDS011;6620;53.734;11.510;2023-01-05T10:10:14;0.75;;;0.30;;
13108;SDS011;6620;53.734;11.510;2023-01-05T10:12:46;0.10;;;0.10;;
13108;SDS011;6620;53.734;11.510;2023-01-05T10:15:29;1.35;;;0.20;;
13108;SDS011;6620;53.734;11.510;2023-01-05T10:17:55;3.30;;;0.40;;
13108;SDS011;6620;53.734;11.510;2023-01-05T10:20:27;0.13;;;0.13;;
13108;SDS011;6620;53.734;11.510;2023-01-05T10:23:06;0.80;;;0.40;;
13108;SDS011;6620;53.734;11.510;2023-01-05T10:25:51;0.38;;;0.38;;
13108;SDS011;6620;53.734;11.510;2023-01-05T10:30:53;0.43;;;0.20;;
13108;SDS011;6620;53.734;11.510;2023-01-05T10:35:51;0.53;;;0.50;;
13108;SDS011;6620;53.734;11.510;2023-01-05T10:43:39;1.00;;;0.30;;
13108;SDS011;6620;53.734;11.510;2023-01-05T10:48:32;1.75;;;0.40;;
13108;SDS011;6620;53.734;11.510;2023-01-05T10:50:58;5.07;;;0.28;;
13108;SDS011;6620;53.734;11.510;2023-01-05T10:53:26;2.33;;;0.40;;
13108;SDS011;6620;53.734;11.510;2023-01-05T10:56:05;0.20;;;0.20;;
13108;SDS011;6620;53.734;11.510;2023-01-05T10:58:37;3.88;;;0.38;;
13108;SDS011;6620;53.734;11.510;2023-01-05T11:01:03;2.42;;;0.20;;
13108;SDS011;6620;53.734;11.510;2023-01-05T11:03:34;1.48;;;0.50;;
13108;SDS011;6620;53.734;11.510;2023-01-05T11:06:00;3.63;;;0.40;;
13108;SDS011;6620;53.734;11.510;2023-01-05T11:08:26;1.65;;;0.43;;
13108;SDS011;6620;53.734;11.510;2023-01-05T11:10:56;1.67;;;0.20;;
13108;SDS011;6620;53.734;11.510;2023-01-05T11:13:29;0.80;;;0.20;;
13108;SDS011;6620;53.734;11.510;2023-01-05T11:15:55;0.75;;;0.20;;
13108;SDS011;6620;53.734;11.510;2023-01-05T11:18:34;2.65;;;0.40;;
13108;SDS011;6620;53.734;11.510;2023-01-05T11:21:08;1.92;;;0.28;;
13108;SDS011;6620;53.734;11.510;2023-01-05T11:23:35;5.35;;;0.20;;
13108;SDS011;6620;53.734;11.510;2023-01-05T11:28:57;1.65;;;0.82;;
13108;SDS011;6620;53.734;11.510;2023-01-05T11:31:24;1.90;;;0.30;;
13108;SDS011;6620;53.734;11.510;2023-01-05T11:33:54;1.98;;;0.32;;
13108;SDS011;6620;53.734;11.510;2023-01-05T11:36:20;1.38;;;0.52;;
13108;SDS011;6620;53.734;11.510;2023-01-05T11:38:48;3.58;;;0.40;;
13108;SDS011;6620;53.734;11.510;2023-01-05T11:41:15;4.15;;;0.40;;
13108;SDS011;6620;53.734;11.510;2023-01-05T11:43:42;1.98;;;0.47;;
13108;SDS011;6620;53.734;11.510;2023-01-05T11:46:10;3.58;;;0.75;;
13108;SDS011;6620;53.734;11.510;2023-01-05T11:48:38;4.88;;;0.40;;
13108;SDS011;6620;53.734;11.510;2023-01-05T11:51:04;3.72;;;0.88;;
13108;SDS011;6620;53.734;11.510;2023-01-05T11:56:01;4.18;;;0.60;;
13108;SDS011;6620;53.734;11.510;2023-01-05T11:58:33;0.40;;;0.30;;
13108;SDS011;6620;53.734;11.510;2023-01-05T12:09:25;4.18;;;0.50;;
13108;SDS011;6620;53.734;11.510;2023-01-05T12:17:19;6.83;;;0.73;;
13108;SDS011;6620;53.734;11.510;2023-01-05T12:40:10;1.53;;;0.60;;
13108;SDS011;6620;53.734;11.510;2023-01-05T12:42:57;2.15;;;0.68;;
13108;SDS011;6620;53.734;11.510;2023-01-05T12:48:24;2.08;;;0.35;;
13108;SDS011;6620;53.734;11.510;2023-01-05T12:53:49;4.85;;;0.60;;
13108;SDS011;6620;53.734;11.510;2023-01-05T12:58:47;4.82;;;0.43;;
13108;SDS011;6620;53.734;11.510;2023-01-05T13:01:21;3.10;;;0.50;;
13108;SDS011;6620;53.734;11.510;2023-01-05T13:03:48;3.45;;;0.50;;
13108;SDS011;6620;53.734;11.510;2023-01-05T13:06:19;5.53;;;0.60;;
13108;SDS011;6620;53.734;11.510;2023-01-05T13:11:20;8.10;;;0.60;;
13108;SDS011;6620;53.734;11.510;2023-01-05T13:13:47;4.43;;;0.40;;
13108;SDS011;6620;53.734;11.510;2023-01-05T13:16:23;6.03;;;0.77;;
13108;SDS011;6620;53.734;11.510;2023-01-05T13:19:33;1.67;;;0.32;;
13108;SDS011;6620;53.734;11.510;2023-01-05T13:21:38;1.17;;;0.35;;
13108;SDS011;6620;53.734;11.510;2023-01-05T13:24:07;4.32;;;0.70;;
13108;SDS011;6620;53.734;11.510;2023-01-05T13:26:33;5.47;;;1.15;;
13108;SDS011;6620;53.734;11.510;2023-01-05T13:29:00;6.93;;;1.23;;
13108;SDS011;6620;53.734;11.510;2023-01-05T13:31:47;2.78;;;0.30;;
13108;SDS011;6620;53.734;11.510;2023-01-05T13:43:06;1.85;;;0.30;;
13108;SDS011;6620;53.734;11.510;2023-01-05T13:48:09;4.90;;;0.90;;
13108;SDS011;6620;53.734;11.510;2023-01-05T13:50:49;6.43;;;0.30;;
13108;SDS011;6620;53.734;11.510;2023-01-05T13:53:21;2.33;;;0.40;;
13108;SDS011;6620;53.734;11.510;2023-01-05T13:55:59;3.00;;;0.68;;
13108;SDS011;6620;53.734;11.510;2023-01-05T14:00:50;4.90;;;0.50;;
13108;SDS011;6620;53.734;11.510;2023-01-05T14:03:27;3.42;;;0.60;;
13108;SDS011;6620;53.734;11.510;2023-01-05T14:05:54;5.97;;;0.90;;
13108;SDS011;6620;53.734;11.510;2023-01-05T14:08:21;5.50;;;0.80;;
13108;SDS011;6620;53.734;11.510;2023-01-05T14:11:07;4.20;;;0.43;;
13108;SDS011;6620;53.734;11.510;2023-01-05T14:14:24;2.78;;;0.50;;
13108;SDS011;6620;53.734;11.510;2023-01-05T14:19:18;3.20;;;0.55;;
13108;SDS011;6620;53.734;11.510;2023-01-05T14:22:20;2.70;;;0.73;;
13108;SDS011;6620;53.734;11.510;2023-01-05T14:24:36;1.80;;;0.60;;
13108;SDS011;6620;53.734;11.510;2023-01-05T14:27:03;1.63;;;0.50;;
13108;SDS011;6620;53.734;11.510;2023-01-05T14:32:11;5.95;;;1.33;;
13108;SDS011;6620;53.734;11.510;2023-01-05T14:34:36;4.47;;;0.40;;
13108;SDS011;6620;53.734;11.510;2023-01-05T14:39:41;2.92;;;0.20;;
13108;SDS011;6620;53.734;11.510;2023-01-05T14:44:43;1.45;;;0.20;;
13108;SDS011;6620;53.734;11.510;2023-01-05T14:47:09;5.90;;;1.08;;
13108;SDS011;6620;53.734;11.510;2023-01-05T14:49:39;8.43;;;3.15;;
13108;SDS011;6620;53.734;11.510;2023-01-05T14:52:06;7.25;;;0.95;;
13108;SDS011;6620;53.734;11.510;2023-01-05T14:54:35;2.90;;;0.43;;
13108;SDS011;6620;53.734;11.510;2023-01-05T14:57:20;2.30;;;0.88;;
13108;SDS011;6620;53.734;11.510;2023-01-05T14:59:47;5.28;;;0.77;;
13108;SDS011;6620;53.734;11.510;2023-01-05T15:02:15;1.88;;;0.30;;
13108;SDS011;6620;53.734;11.510;2023-01-05T15:04:41;4.95;;;2.33;;
13108;SDS011;6620;53.734;11.510;2023-01-05T15:30:41;3.53;;;1.10;;
13108;SDS011;6620;53.734;11.510;2023-01-05T15:33:23;1.60;;;0.28;;
13108;SDS011;6620;53.734;11.510;2023-01-05T15:35:54;7.50;;;0.68;;
13108;SDS011;6620;53.734;11.510;2023-01-05T15:38:21;5.85;;;0.60;;
13108;SDS011;6620;53.734;11.510;2023-01-05T15:40:47;2.40;;;0.52;;
13108;SDS011;6620;53.734;11.510;2023-01-05T15:43:15;7.13;;;0.63;;
13108;SDS011;6620;53.734;11.510;2023-01-05T15:45:41;5.80;;;0.70;;
13108;SDS011;6620;53.734;11.510;2023-01-05T15:48:13;1.55;;;0.50;;
13108;SDS011;6620;53.734;11.510;2023-01-05T15:50:48;6.32;;;0.70;;
13108;SDS011;6620;53.734;11.510;2023-01-05T15:53:34;5.43;;;0.60;;
13108;SDS011;6620;53.734;11.510;2023-01-05T15:56:01;4.57;;;1.10;;
13108;SDS011;6620;53.734;11.510;2023-01-05T15:58:27;2.83;;;0.90;;
13108;SDS011;6620;53.734;11.510;2023-01-05T16:03:29;4.82;;;1.08;;
13108;SDS011;6620;53.734;11.510;2023-01-05T16:05:58;3.67;;;1.00;;
13108;SDS011;6620;53.734;11.510;2023-01-05T16:08:24;3.67;;;1.02;;
13108;SDS011;6620;53.734;11.510;2023-01-05T16:10:53;1.52;;;0.77;;
13108;SDS011;6620;53.734;11.510;2023-01-05T16:13:33;2.58;;;0.70;;
13108;SDS011;6620;53.734;11.510;2023-01-05T16:15:59;3.03;;;0.65;;
13108;SDS011;6620;53.734;11.510;2023-01-05T16:18:31;3.83;;;0.70;;
13108;SDS011;6620;53.734;11.510;2023-01-05T16:20:58;3.13;;;0.70;;
13108;SDS011;6620;53.734;11.510;2023-01-05T16:25:57;3.83;;;1.10;;
13108;SDS011;6620;53.734;11.510;2023-01-05T16:28:23;4.78;;;0.38;;
13108;SDS011;6620;53.734;11.510;2023-01-05T16:30:49;6.80;;;0.85;;
13108;SDS011;6620;53.734;11.510;2023-01-05T16:35:44;7.22;;;0.40;;
13108;SDS011;6620;53.734;11.510;2023-01-05T16:40:36;3.57;;;0.37;;
13108;SDS011;6620;53.734;11.510;2023-01-05T16:43:03;0.80;;;0.35;;
13108;SDS011;6620;53.734;11.510;2023-01-05T16:45:30;2.83;;;0.50;;
13108;SDS011;6620;53.734;11.510;2023-01-05T16:47:56;9.52;;;1.75;;
13108;SDS011;6620;53.734;11.510;2023-01-05T16:55:20;2.70;;;0.47;;
13108;SDS011;6620;53.734;11.510;2023-01-05T16:57:49;4.93;;;1.52;;
13108;SDS011;6620;53.734;11.510;2023-01-05T17:02:52;3.65;;;0.52;;
13108;SDS011;6620;53.734;11.510;2023-01-05T17:05:19;6.60;;;0.80;;
13108;SDS011;6620;53.734;11.510;2023-01-05T17:07:45;2.72;;;0.50;;
13108;SDS011;6620;53.734;11.510;2023-01-05T17:10:21;6.53;;;0.88;;
13108;SDS011;6620;53.734;11.510;2023-01-05T17:12:50;5.05;;;0.65;;
13108;SDS011;6620;53.734;11.510;2023-01-05T17:15:21;5.85;;;0.77;;
13108;SDS011;6620;53.734;11.510;2023-01-05T17:17:47;2.90;;;0.60;;
13108;SDS011;6620;53.734;11.510;2023-01-05T17:20:12;10.48;;;0.98;;
13108;SDS011;6620;53.734;11.510;2023-01-05T17:22:37;4.13;;;0.90;;
13108;SDS011;6620;53.734;11.510;2023-01-05T17:25:03;4.10;;;1.33;;
13108;SDS011;6620;53.734;11.510;2023-01-05T17:27:29;4.88;;;0.80;;
13108;SDS011;6620;53.734;11.510;2023-01-05T17:29:54;3.87;;;0.80;;
13108;SDS011;6620;53.734;11.510;2023-01-05T17:32:19;6.00;;;1.37;;
13108;SDS011;6620;53.734;11.510;2023-01-05T17:34:44;5.77;;;0.90;;
13108;SDS011;6620;53.734;11.510;2023-01-05T17:37:13;3.35;;;0.80;;
13108;SDS011;6620;53.734;11.510;2023-01-05T17:39:39;3.10;;;1.00;;
13108;SDS011;6620;53.734;11.510;2023-01-05T17:42:04;2.83;;;1.27;;
13108;SDS011;6620;53.734;11.510;2023-01-05T17:44:48;2.47;;;0.85;;
13108;SDS011;6620;53.734;11.510;2023-01-05T17:47:13;5.43;;;1.37;;
13108;SDS011;6620;53.734;11.510;2023-01-05T17:49:38;3.57;;;0.90;;
13108;SDS011;6620;53.734;11.510;2023-01-05T17:52:03;6.03;;;1.33;;
13108;SDS011;6620;53.734;11.510;2023-01-05T17:54:29;2.37;;;0.87;;
13108;SDS011;6620;53.734;11.510;2023-01-05T17:56:54;4.80;;;0.85;;
13108;SDS011;6620;53.734;11.510;2023-01-05T17:59:19;1.73;;;0.63;;
13108;SDS011;6620;53.734;11.510;2023-01-05T18:01:44;4.97;;;0.97;;
13108;SDS011;6620;53.734;11.510;2023-01-05T18:04:09;5.20;;;1.47;;
13108;SDS011;6620;53.734;11.510;2023-01-05T18:06:35;4.47;;;0.90;;
13108;SDS011;6620;53.734;11.510;2023-01-05T18:09:00;4.85;;;0.63;;
13108;SDS011;6620;53.734;11.510;2023-01-05T18:11:25;3.27;;;0.90;;